KFNL/FNL METAR and TAF weather

Enter ICAO airport designator
Station Type Date Time Source
KFNL METAR 2020/01/29 12:56 UTC NOAA

KFNL 291256Z AUTO 03004KT 10SM OVC090 M01/M06 A3003 RMK AO2 SLP182 T10111061 FZRANO


Station Type Date Time Source
KFNL Decoded METAR 2020/01/29 12:56 UTC NOAA

Fort Collins/Loveland, Fort Collins-Loveland Municipal Airport, CO, United States (KFNL) 40-27N 105-01W
Jan 29, 2020 - 07:56 AM EST / 2020.01.29 1256 UTC
Wind: from the NNE (030 degrees) at 5 MPH (4 KT):0
Visibility: 10 mile(s):0
Sky conditions: overcast
Temperature: 30.0 F (-1.1 C)
Windchill: 24 F (-4 C):1
Dew Point: 21.0 F (-6.1 C)
Relative Humidity: 68%
Pressure (altimeter): 30.03 in. Hg (1016 hPa)
ob: KFNL 291256Z AUTO 03004KT 10SM OVC090 M01/M06 A3003 RMK AO2 SLP182 T10111061 FZRANO
cycle: 13

Station Type Date Time Source
KFNL TAF UTC NOAA

Error!

Example: see airport list